Time;durP1;ratioP1;P1;durP2;ratioP2;P2;SDS_P1;SDS_P2;PMS_P1;PMS_P2;Temp;Humidity;BMP_temperature;BMP_pressure;BME280_temperature;BME280_humidity;BME280_pressure;Samples;Min_cycle;Max_cycle;Signal;HPM_P1;HPM_P2
2024/04/05 00:00:49;;;;;;;12.73;5.00;;;;;;;;;;4992389;28;21647;-67
2024/04/05 00:03:17;;;;;;;11.38;4.65;;;;;;;;;;4998518;28;20033;-66
2024/04/05 00:05:44;;;;;;;9.93;3.20;;;;;;;;;;4977494;28;20122;-66
2024/04/05 00:08:12;;;;;;;8.30;2.78;;;;;;;;;;5000091;28;20053;-65
2024/04/05 00:10:40;;;;;;;8.98;3.28;;;;;;;;;;4977884;28;20041;-66
2024/04/05 00:13:08;;;;;;;9.77;4.10;;;;;;;;;;4999946;28;20467;-65
2024/04/05 00:15:39;;;;;;;9.75;2.47;;;;;;;;;;4996285;28;20448;-65
2024/04/05 00:18:06;;;;;;;8.95;3.22;;;;;;;;;;5000167;28;20164;-66
2024/04/05 00:20:33;;;;;;;10.52;2.85;;;;;;;;;;4996390;28;20030;-66
2024/04/05 00:23:01;;;;;;;7.57;2.40;;;;;;;;;;4995801;28;20179;-65
2024/04/05 00:25:27;;;;;;;7.28;1.88;;;;;;;;;;4980546;28;20064;-68
2024/04/05 00:27:55;;;;;;;7.15;2.33;;;;;;;;;;4996961;28;20091;-66
2024/04/05 00:30:22;;;;;;;6.00;1.80;;;;;;;;;;5000208;28;20029;-66
2024/04/05 00:32:49;;;;;;;7.93;2.60;;;;;;;;;;4995117;28;20123;-66
2024/04/05 00:35:16;;;;;;;9.35;2.58;;;;;;;;;;4981137;28;20041;-66
2024/04/05 00:37:44;;;;;;;10.43;3.33;;;;;;;;;;4977976;28;20040;-66
2024/04/05 00:40:13;;;;;;;10.73;3.95;;;;;;;;;;4999977;28;20037;-67
2024/04/05 00:42:40;;;;;;;7.78;2.40;;;;;;;;;;4994693;28;20037;-66
2024/04/05 00:45:08;;;;;;;7.63;1.88;;;;;;;;;;4981391;28;20033;-66
2024/04/05 00:47:36;;;;;;;7.85;2.05;;;;;;;;;;4995954;28;20045;-66
2024/04/05 00:50:05;;;;;;;7.93;1.95;;;;;;;;;;4998729;28;20844;-67
2024/04/05 00:52:33;;;;;;;7.32;1.88;;;;;;;;;;4994670;28;20128;-67
2024/04/05 00:55:01;;;;;;;6.97;2.17;;;;;;;;;;4996904;28;20570;-66
2024/04/05 00:57:30;;;;;;;6.80;2.03;;;;;;;;;;4998635;28;20113;-67
2024/04/05 00:59:56;;;;;;;6.57;1.80;;;;;;;;;;4964525;28;20048;-66
2024/04/05 01:02:24;;;;;;;6.78;2.17;;;;;;;;;;4981005;28;20083;-66
2024/04/05 01:04:52;;;;;;;6.07;1.60;;;;;;;;;;4996384;28;20052;-67
2024/04/05 01:07:19;;;;;;;7.60;1.85;;;;;;;;;;4999554;28;20045;-67
2024/04/05 01:09:47;;;;;;;8.35;2.30;;;;;;;;;;4995512;28;20025;-66
2024/04/05 01:12:14;;;;;;;7.85;2.38;;;;;;;;;;4981306;28;20036;-66
2024/04/05 01:14:41;;;;;;;7.47;2.53;;;;;;;;;;4996847;28;20037;-66
2024/04/05 01:17:08;;;;;;;7.10;2.10;;;;;;;;;;5000872;28;23144;-66
2024/04/05 01:19:37;;;;;;;7.72;2.15;;;;;;;;;;4997730;28;20044;-66
2024/04/05 01:22:11;;;;;;;7.40;2.20;;;;;;;;;;5002660;28;20106;-67
2024/04/05 01:24:39;;;;;;;7.57;2.60;;;;;;;;;;4997281;28;20048;-66
2024/04/05 01:27:07;;;;;;;8.52;2.80;;;;;;;;;;4985036;28;20928;-66
2024/04/05 01:29:34;;;;;;;7.93;2.40;;;;;;;;;;4999207;28;20044;-66
2024/04/05 01:32:02;;;;;;;6.22;1.90;;;;;;;;;;4979934;28;21211;-66
2024/04/05 01:34:29;;;;;;;8.27;2.05;;;;;;;;;;4983458;28;20041;-66
2024/04/05 01:36:57;;;;;;;6.25;1.75;;;;;;;;;;5002128;28;20033;-67
2024/04/05 01:39:26;;;;;;;6.05;1.50;;;;;;;;;;4983484;28;20033;-67
2024/04/05 01:41:56;;;;;;;7.75;2.10;;;;;;;;;;4979866;28;20515;-67
2024/04/05 01:44:23;;;;;;;8.82;2.15;;;;;;;;;;5001938;28;20033;-67
2024/04/05 01:46:49;;;;;;;7.35;1.67;;;;;;;;;;4994458;28;20840;-67
2024/04/05 01:49:17;;;;;;;7.85;1.63;;;;;;;;;;5001202;28;20037;-67
2024/04/05 01:51:44;;;;;;;7.60;2.00;;;;;;;;;;4997044;28;20036;-67
2024/04/05 01:54:12;;;;;;;6.40;1.55;;;;;;;;;;4983562;28;20049;-66
2024/04/05 01:56:39;;;;;;;7.60;1.52;;;;;;;;;;4998381;28;20091;-67
2024/04/05 01:59:11;;;;;;;6.70;1.75;;;;;;;;;;4983577;28;20083;-67
2024/04/05 02:01:38;;;;;;;7.78;2.03;;;;;;;;;;4997503;28;20336;-64
2024/04/05 02:04:07;;;;;;;8.18;2.38;;;;;;;;;;4982721;28;20076;-65
2024/04/05 02:06:36;;;;;;;7.30;2.30;;;;;;;;;;4998926;28;20495;-66
2024/04/05 02:09:04;;;;;;;10.00;2.15;;;;;;;;;;4997926;28;20037;-67
2024/04/05 02:11:33;;;;;;;8.70;2.00;;;;;;;;;;4980416;28;20029;-65
2024/04/05 02:14:00;;;;;;;7.10;1.90;;;;;;;;;;5002547;28;20029;-67
2024/04/05 02:16:27;;;;;;;7.00;1.90;;;;;;;;;;4984198;28;20056;-66
2024/04/05 02:18:54;;;;;;;7.00;2.00;;;;;;;;;;4980658;28;20028;-65
2024/04/05 02:21:23;;;;;;;7.75;2.20;;;;;;;;;;5001811;28;20345;-65
2024/04/05 02:23:51;;;;;;;7.10;1.88;;;;;;;;;;4997362;28;23512;-65
2024/04/05 02:26:19;;;;;;;7.10;1.83;;;;;;;;;;5001428;28;20188;-65
2024/04/05 02:28:47;;;;;;;7.63;1.98;;;;;;;;;;4997882;28;20451;-65
2024/04/05 02:31:15;;;;;;;7.70;2.30;;;;;;;;;;5000100;28;20030;-68
2024/04/05 02:33:44;;;;;;;6.50;1.60;;;;;;;;;;4993462;28;20026;-66
2024/04/05 02:36:12;;;;;;;7.05;1.67;;;;;;;;;;4984036;28;20105;-65
2024/04/05 02:38:38;;;;;;;6.05;1.77;;;;;;;;;;4997834;28;20080;-66
2024/04/05 02:41:07;;;;;;;9.15;1.90;;;;;;;;;;5000329;28;20022;-65
2024/04/05 02:43:36;;;;;;;7.65;2.20;;;;;;;;;;4996525;28;20049;-65
2024/04/05 02:46:04;;;;;;;7.18;1.85;;;;;;;;;;5000868;28;20578;-65
2024/04/05 02:48:32;;;;;;;7.57;2.00;;;;;;;;;;4978237;28;20037;-66
2024/04/05 02:50:59;;;;;;;7.35;1.55;;;;;;;;;;4999243;28;20037;-65
2024/04/05 02:53:26;;;;;;;8.18;2.03;;;;;;;;;;5001439;28;20575;-66
2024/04/05 02:55:54;;;;;;;6.28;1.95;;;;;;;;;;4997484;28;20128;-66
2024/04/05 02:58:21;;;;;;;8.38;2.10;;;;;;;;;;4981567;28;20055;-66
2024/04/05 03:00:49;;;;;;;6.53;1.88;;;;;;;;;;4977923;28;20120;-67
2024/04/05 03:03:17;;;;;;;7.18;1.70;;;;;;;;;;5000865;28;20637;-66
2024/04/05 03:05:45;;;;;;;8.63;1.90;;;;;;;;;;4978675;28;20026;-64
2024/04/05 03:08:14;;;;;;;7.60;1.73;;;;;;;;;;5000246;28;20067;-67
2024/04/05 03:10:42;;;;;;;7.97;1.67;;;;;;;;;;4974076;28;20919;-67
2024/04/05 03:13:09;;;;;;;7.88;2.08;;;;;;;;;;4980856;28;20577;-66
2024/04/05 03:15:38;;;;;;;7.45;1.95;;;;;;;;;;4996736;28;20025;-65
2024/04/05 03:18:05;;;;;;;6.70;1.98;;;;;;;;;;4999776;28;20111;-66
2024/04/05 03:20:31;;;;;;;7.40;1.80;;;;;;;;;;4978168;28;20034;-65
2024/04/05 03:22:59;;;;;;;;;;;;;;;;;;4999996;28;20057;-66
2024/04/05 03:25:26;;;;;;;;;;;;;;;;;;4982448;28;20547;-65
2024/04/05 03:27:53;;;;;;;8.13;2.20;;;;;;;;;;4995550;28;19917;-65
2024/04/05 03:30:21;;;;;;;6.30;1.50;;;;;;;;;;5000717;28;20033;-65
2024/04/05 03:32:48;;;;;;;7.93;2.20;;;;;;;;;;4995370;28;20061;-66
2024/04/05 03:35:15;;;;;;;6.13;1.90;;;;;;;;;;5000351;28;20034;-66
2024/04/05 03:37:41;;;;;;;;;;;;;;;;;;4974641;28;20035;-66
2024/04/05 03:40:08;;;;;;;7.43;2.05;;;;;;;;;;4981217;28;19909;-67
2024/04/05 03:42:38;;;;;;;8.05;2.10;;;;;;;;;;4992080;28;20362;-66
2024/04/05 03:45:05;;;;;;;8.25;2.30;;;;;;;;;;4998614;28;20508;-66
2024/04/05 03:47:34;;;;;;;5.97;1.77;;;;;;;;;;4996905;28;20045;-66
2024/04/05 03:50:01;;;;;;;8.07;2.38;;;;;;;;;;4981454;28;20033;-66
2024/04/05 03:52:29;;;;;;;6.15;1.92;;;;;;;;;;4981341;28;20859;-67
2024/04/05 03:54:57;;;;;;;8.13;2.30;;;;;;;;;;4981149;28;20026;-67
2024/04/05 03:57:25;;;;;;;7.43;2.20;;;;;;;;;;4999872;28;20084;-67
2024/04/05 03:59:54;;;;;;;6.55;2.10;;;;;;;;;;4996104;28;20033;-66
2024/04/05 04:02:24;;;;;;;8.85;2.30;;;;;;;;;;4999051;28;20061;-66
2024/04/05 04:04:54;;;;;;;7.38;2.35;;;;;;;;;;4997016;28;20033;-67
2024/04/05 04:07:23;;;;;;;7.25;2.13;;;;;;;;;;4981093;28;20132;-66
2024/04/05 04:09:50;;;;;;;7.57;2.13;;;;;;;;;;5008974;28;20562;-66
2024/04/05 04:12:19;;;;;;;6.25;2.10;;;;;;;;;;4982384;28;20036;-66
2024/04/05 04:14:48;;;;;;;7.07;2.00;;;;;;;;;;5010839;28;20116;-66
2024/04/05 04:17:17;;;;;;;7.28;2.20;;;;;;;;;;4977969;28;20041;-67
2024/04/05 04:19:45;;;;;;;7.93;2.00;;;;;;;;;;4995873;28;20025;-66
2024/04/05 04:22:12;;;;;;;7.50;2.00;;;;;;;;;;5000368;28;20026;-68
2024/04/05 04:24:39;;;;;;;6.85;1.80;;;;;;;;;;4977143;28;20037;-68
2024/04/05 04:27:08;;;;;;;6.40;1.98;;;;;;;;;;4982169;28;20030;-68
2024/04/05 04:29:36;;;;;;;7.70;2.10;;;;;;;;;;4995462;28;20043;-68
2024/04/05 04:32:04;;;;;;;6.70;1.95;;;;;;;;;;4999159;28;20044;-68
2024/04/05 04:34:32;;;;;;;7.20;1.80;;;;;;;;;;4991733;28;20017;-68
2024/04/05 04:37:00;;;;;;;5.97;1.80;;;;;;;;;;4981602;28;20064;-67
2024/04/05 04:39:31;;;;;;;7.53;1.90;;;;;;;;;;4998795;28;20559;-68
2024/04/05 04:41:57;;;;;;;6.38;1.67;;;;;;;;;;4995253;28;20199;-68
2024/04/05 04:44:24;;;;;;;;;;;;;;;;;;4999130;28;20037;-68
2024/04/05 04:46:53;;;;;;;6.05;1.75;;;;;;;;;;4995570;28;19913;-69
2024/04/05 04:49:20;;;;;;;6.45;1.80;;;;;;;;;;4982888;28;20033;-68
2024/04/05 04:51:49;;;;;;;7.13;2.00;;;;;;;;;;5014054;28;20026;-67
2024/04/05 04:54:16;;;;;;;5.13;1.40;;;;;;;;;;5018677;28;20032;-68
2024/04/05 04:56:46;;;;;;;6.13;1.52;;;;;;;;;;4997442;28;20025;-68
2024/04/05 04:59:14;;;;;;;6.13;1.58;;;;;;;;;;5016542;28;20033;-67
2024/04/05 05:01:43;;;;;;;7.90;1.80;;;;;;;;;;4998281;28;20041;-69
2024/04/05 05:04:14;;;;;;;6.55;1.60;;;;;;;;;;5001860;28;20124;-67
2024/04/05 05:06:42;;;;;;;7.85;1.63;;;;;;;;;;4998708;28;20068;-67
2024/04/05 05:09:11;;;;;;;7.95;1.60;;;;;;;;;;5002647;28;20053;-69
2024/04/05 05:11:38;;;;;;;6.93;1.67;;;;;;;;;;4997577;28;20694;-66
2024/04/05 05:14:05;;;;;;;6.32;1.70;;;;;;;;;;4999064;28;20687;-67
2024/04/05 05:16:33;;;;;;;6.18;1.65;;;;;;;;;;4978668;28;20145;-67
2024/04/05 05:18:59;;;;;;;8.10;1.70;;;;;;;;;;5003176;28;20047;-67
2024/04/05 05:21:26;;;;;;;;;;;;;;;;;;5002779;28;20040;-66
2024/04/05 05:23:53;;;;;;;6.72;1.88;;;;;;;;;;4997074;28;19959;-67
2024/04/05 05:26:22;;;;;;;6.70;1.85;;;;;;;;;;4982827;28;20049;-66
2024/04/05 05:28:50;;;;;;;5.53;1.50;;;;;;;;;;4997536;28;20044;-67
2024/04/05 05:31:17;;;;;;;13.95;2.78;;;;;;;;;;4996048;28;20163;-67
2024/04/05 05:33:46;;;;;;;8.73;2.63;;;;;;;;;;4997904;28;20427;-67
2024/04/05 05:36:13;;;;;;;9.68;2.45;;;;;;;;;;5001416;28;20025;-68
2024/04/05 05:38:42;;;;;;;7.15;2.13;;;;;;;;;;4976535;28;20091;-68
2024/04/05 05:41:10;;;;;;;8.00;2.13;;;;;;;;;;4997779;28;20038;-67
2024/04/05 05:43:38;;;;;;;10.77;2.78;;;;;;;;;;4980191;28;20566;-67
2024/04/05 05:46:06;;;;;;;7.93;2.00;;;;;;;;;;5001871;28;21509;-67
2024/04/05 05:48:33;;;;;;;8.27;2.20;;;;;;;;;;4998309;28;20075;-66
2024/04/05 05:51:01;;;;;;;9.30;2.38;;;;;;;;;;4982326;28;20155;-68
2024/04/05 05:53:28;;;;;;;8.25;2.53;;;;;;;;;;5000437;28;20026;-68
2024/04/05 05:55:55;;;;;;;9.48;2.50;;;;;;;;;;5000701;28;20029;-67
2024/04/05 05:58:23;;;;;;;10.15;2.80;;;;;;;;;;5000430;28;20038;-67
2024/04/05 06:00:51;;;;;;;13.50;3.42;;;;;;;;;;4977682;28;21193;-68
2024/04/05 06:03:18;;;;;;;9.88;3.92;;;;;;;;;;4982009;28;20033;-67
2024/04/05 06:05:52;;;;;;;9.88;3.28;;;;;;;;;;4996206;28;20041;-67
2024/04/05 06:08:20;;;;;;;14.10;4.03;;;;;;;;;;4999859;28;20048;-67
2024/04/05 06:10:56;;;;;;;10.20;3.67;;;;;;;;;;4996785;28;20033;-66
2024/04/05 06:13:26;;;;;;;9.82;3.40;;;;;;;;;;4981649;28;20132;-69
2024/04/05 06:15:57;;;;;;;11.20;4.35;;;;;;;;;;4997027;28;20056;-68
2024/04/05 06:18:27;;;;;;;12.75;3.90;;;;;;;;;;5001097;28;20124;-67
2024/04/05 06:20:55;;;;;;;11.60;4.05;;;;;;;;;;4994035;28;20042;-68
2024/04/05 06:23:26;;;;;;;11.75;4.20;;;;;;;;;;4996434;28;20029;-68
2024/04/05 06:25:59;;;;;;;12.95;3.80;;;;;;;;;;4996813;28;20079;-67
2024/04/05 06:28:26;;;;;;;11.43;4.57;;;;;;;;;;5015527;28;20551;-70
2024/04/05 06:30:56;;;;;;;11.73;4.40;;;;;;;;;;4977113;28;20964;-67
2024/04/05 06:33:23;;;;;;;12.55;4.72;;;;;;;;;;4998600;28;20109;-67
2024/04/05 06:36:01;;;;;;;14.27;4.65;;;;;;;;;;4976091;28;20611;-67
2024/04/05 06:38:28;;;;;;;11.30;4.32;;;;;;;;;;4976411;28;20040;-66
2024/04/05 06:40:59;;;;;;;13.10;4.40;;;;;;;;;;4999221;28;20025;-67
2024/04/05 06:43:30;;;;;;;11.80;4.00;;;;;;;;;;4981814;28;20045;-68
2024/04/05 06:46:00;;;;;;;13.43;4.35;;;;;;;;;;4998803;28;20021;-68
2024/04/05 06:48:27;;;;;;;13.02;4.22;;;;;;;;;;4998447;28;20149;-67
2024/04/05 06:50:55;;;;;;;11.95;4.32;;;;;;;;;;4979871;28;20030;-68
2024/04/05 06:53:30;;;;;;;11.73;4.43;;;;;;;;;;4981504;28;20064;-68
2024/04/05 06:55:58;;;;;;;15.38;4.60;;;;;;;;;;5000103;28;20040;-68
2024/04/05 06:58:26;;;;;;;13.25;4.03;;;;;;;;;;4999431;28;20549;-66
2024/04/05 07:00:55;;;;;;;15.98;4.05;;;;;;;;;;4978105;28;20458;-68
2024/04/05 07:03:23;;;;;;;11.68;4.15;;;;;;;;;;4999006;28;20041;-67
2024/04/05 07:05:59;;;;;;;11.52;3.92;;;;;;;;;;4992145;28;20533;-68
2024/04/05 07:08:31;;;;;;;20.63;4.25;;;;;;;;;;4997563;28;20719;-67
2024/04/05 07:10:58;;;;;;;13.52;4.07;;;;;;;;;;5001136;28;20219;-68
2024/04/05 07:13:26;;;;;;;12.25;4.40;;;;;;;;;;4999129;28;20029;-67
2024/04/05 07:15:55;;;;;;;14.68;4.15;;;;;;;;;;4996319;28;20026;-69
2024/04/05 07:18:24;;;;;;;14.70;4.53;;;;;;;;;;4980784;28;20123;-68
2024/04/05 07:20:54;;;;;;;11.45;4.15;;;;;;;;;;4995947;28;20036;-67
2024/04/05 07:23:21;;;;;;;12.23;4.55;;;;;;;;;;4999609;28;20128;-67
2024/04/05 07:25:48;;;;;;;14.85;4.82;;;;;;;;;;4978852;28;20152;-67
2024/04/05 07:28:18;;;;;;;11.70;4.80;;;;;;;;;;4999340;28;21353;-68
2024/04/05 07:30:45;;;;;;;13.00;4.88;;;;;;;;;;4994716;28;20323;-67
2024/04/05 07:33:12;;;;;;;15.27;4.55;;;;;;;;;;5010188;28;20172;-67
2024/04/05 07:35:40;;;;;;;9.90;3.80;;;;;;;;;;5009666;28;20049;-69
2024/04/05 07:38:07;;;;;;;10.73;3.95;;;;;;;;;;4996628;28;20030;-68
2024/04/05 07:40:35;;;;;;;12.60;4.60;;;;;;;;;;4994825;28;20045;-68
2024/04/05 07:43:04;;;;;;;13.95;4.30;;;;;;;;;;5000758;28;20041;-72
2024/04/05 07:45:32;;;;;;;10.15;3.85;;;;;;;;;;4977287;28;20163;-73
2024/04/05 07:48:00;;;;;;;14.63;4.22;;;;;;;;;;4999998;28;20098;-71
2024/04/05 07:50:26;;;;;;;11.80;3.88;;;;;;;;;;4999862;28;20026;-72
2024/04/05 07:52:53;;;;;;;11.68;3.67;;;;;;;;;;4977848;28;20041;-72
2024/04/05 07:55:21;;;;;;;13.20;4.45;;;;;;;;;;4999971;28;20040;-71
2024/04/05 07:57:48;;;;;;;10.88;3.80;;;;;;;;;;4995425;28;20758;-71
2024/04/05 08:00:16;;;;;;;11.50;4.10;;;;;;;;;;4997751;28;20443;-71
2024/04/05 08:02:50;;;;;;;10.38;3.65;;;;;;;;;;4995278;28;20054;-73
2024/04/05 08:05:18;;;;;;;12.38;4.60;;;;;;;;;;4981508;28;20045;-71
2024/04/05 08:07:45;;;;;;;14.60;4.32;;;;;;;;;;4993981;28;20136;-71
2024/04/05 08:10:15;;;;;;;10.75;3.75;;;;;;;;;;4999670;28;20045;-71
2024/04/05 08:12:43;;;;;;;11.55;3.60;;;;;;;;;;4975757;28;20099;-70
2024/04/05 08:15:11;;;;;;;11.68;4.45;;;;;;;;;;4980428;28;20400;-70
2024/04/05 08:17:39;;;;;;;12.15;5.30;;;;;;;;;;4996310;28;20144;-71
2024/04/05 08:20:08;;;;;;;9.95;3.75;;;;;;;;;;4982152;28;20033;-71
2024/04/05 08:22:35;;;;;;;10.32;3.35;;;;;;;;;;4977884;28;20057;-69
2024/04/05 08:25:07;;;;;;;9.55;4.15;;;;;;;;;;5005030;28;20030;-70
2024/04/05 08:27:36;;;;;;;9.48;2.65;;;;;;;;;;4997636;28;20061;-70
2024/04/05 08:30:04;;;;;;;10.20;3.83;;;;;;;;;;5004321;28;20022;-69
2024/04/05 08:32:31;;;;;;;7.75;2.40;;;;;;;;;;5002071;28;20036;-71
2024/04/05 08:35:00;;;;;;;7.13;1.48;;;;;;;;;;5005060;28;20031;-72
2024/04/05 08:37:29;;;;;;;10.48;1.80;;;;;;;;;;4987110;28;20306;-70
2024/04/05 08:39:55;;;;;;;7.43;1.60;;;;;;;;;;4999042;28;20064;-71
2024/04/05 08:42:28;;;;;;;6.95;1.40;;;;;;;;;;5005176;28;20502;-71
2024/04/05 08:44:55;;;;;;;8.68;1.98;;;;;;;;;;5004859;28;20033;-70
2024/04/05 08:47:23;;;;;;;7.80;1.40;;;;;;;;;;4987222;28;20040;-70
2024/04/05 08:49:52;;;;;;;5.85;1.40;;;;;;;;;;5001775;28;20033;-70
2024/04/05 08:52:19;;;;;;;6.50;1.23;;;;;;;;;;4984738;28;20103;-70
2024/04/05 08:54:47;;;;;;;4.53;1.00;;;;;;;;;;5000859;28;20033;-68
2024/04/05 08:57:15;;;;;;;10.48;2.95;;;;;;;;;;4987850;28;20033;-71
2024/04/05 08:59:48;;;;;;;9.00;2.00;;;;;;;;;;4965950;28;20037;-71
2024/04/05 09:02:16;;;;;;;7.63;1.67;;;;;;;;;;4984240;28;20037;-71
2024/04/05 09:04:44;;;;;;;7.80;1.70;;;;;;;;;;5000779;28;20033;-70
2024/04/05 09:07:11;;;;;;;7.10;1.60;;;;;;;;;;4986843;28;20555;-71
2024/04/05 09:09:42;;;;;;;8.20;2.90;;;;;;;;;;4975825;28;20050;-71
2024/04/05 09:12:10;;;;;;;7.45;1.40;;;;;;;;;;4971569;28;20045;-71
2024/04/05 09:14:38;;;;;;;6.35;1.23;;;;;;;;;;4988979;28;20056;-72
2024/04/05 09:17:15;;;;;;;5.47;1.35;;;;;;;;;;4975827;28;20034;-71
2024/04/05 09:19:43;;;;;;;6.43;1.20;;;;;;;;;;4986181;28;20658;-71
2024/04/05 09:22:25;;;;;;;6.13;1.35;;;;;;;;;;4970934;28;20251;-72
2024/04/05 09:25:03;;;;;;;6.55;1.35;;;;;;;;;;4984209;28;20579;-71
2024/04/05 09:27:32;;;;;;;5.50;1.20;;;;;;;;;;4989522;28;20534;-71
2024/04/05 09:30:08;;;;;;;7.03;1.45;;;;;;;;;;4988765;28;20069;-72
2024/04/05 09:32:37;;;;;;;7.20;1.33;;;;;;;;;;4984596;28;20036;-71
2024/04/05 09:35:09;;;;;;;4.93;1.10;;;;;;;;;;4970024;28;20030;-72
2024/04/05 09:37:38;;;;;;;6.30;1.33;;;;;;;;;;4982770;28;20034;-71
2024/04/05 09:40:10;;;;;;;5.60;1.20;;;;;;;;;;4969488;28;20034;-72
2024/04/05 09:42:40;;;;;;;5.35;1.30;;;;;;;;;;4965989;28;20029;-72
2024/04/05 09:45:09;;;;;;;6.68;1.27;;;;;;;;;;4965286;28;20072;-72
2024/04/05 09:47:37;;;;;;;4.38;1.00;;;;;;;;;;4964422;28;20122;-72
2024/04/05 09:50:08;;;;;;;6.10;1.40;;;;;;;;;;4967307;28;20116;-73
2024/04/05 09:52:43;;;;;;;5.68;1.10;;;;;;;;;;4982469;28;20038;-72
2024/04/05 09:55:16;;;;;;;6.00;1.52;;;;;;;;;;4988763;28;20052;-73
2024/04/05 09:57:48;;;;;;;6.78;1.40;;;;;;;;;;4965193;28;20621;-72
2024/04/05 10:00:19;;;;;;;6.20;1.50;;;;;;;;;;4967968;28;20036;-71
2024/04/05 10:02:51;;;;;;;6.38;1.30;;;;;;;;;;4984050;28;20085;-71
2024/04/05 10:05:28;;;;;;;10.45;1.48;;;;;;;;;;4952509;28;20026;-72
2024/04/05 10:07:57;;;;;;;6.88;1.63;;;;;;;;;;4987603;28;20034;-72
2024/04/05 10:10:33;;;;;;;6.78;1.38;;;;;;;;;;4983153;28;20045;-71
2024/04/05 10:13:14;;;;;;;5.45;1.40;;;;;;;;;;4984426;28;20041;-70
2024/04/05 10:15:56;;;;;;;5.28;1.33;;;;;;;;;;4998139;28;20144;-70
2024/04/05 10:18:30;;;;;;;5.95;1.35;;;;;;;;;;4983562;28;20111;-72
2024/04/05 10:21:16;;;;;;;8.07;1.48;;;;;;;;;;5000822;28;20055;-72
2024/04/05 10:23:45;;;;;;;5.97;1.25;;;;;;;;;;4979703;28;20037;-73
2024/04/05 10:26:16;;;;;;;5.22;1.30;;;;;;;;;;4996002;28;20139;-73
2024/04/05 10:28:43;;;;;;;5.72;1.33;;;;;;;;;;4997625;28;20033;-73
2024/04/05 10:31:11;;;;;;;5.88;1.30;;;;;;;;;;4984133;28;20045;-72
2024/04/05 10:33:38;;;;;;;5.63;1.48;;;;;;;;;;4999506;28;20125;-71
2024/04/05 10:36:07;;;;;;;6.80;1.60;;;;;;;;;;4982806;28;20439;-69
2024/04/05 10:38:35;;;;;;;6.35;1.88;;;;;;;;;;4981115;28;20045;-72
2024/04/05 10:41:06;;;;;;;8.52;1.52;;;;;;;;;;4983638;28;20121;-72
2024/04/05 10:43:34;;;;;;;7.35;1.25;;;;;;;;;;4979473;28;20061;-71
2024/04/05 10:46:03;;;;;;;6.93;1.40;;;;;;;;;;4997528;28;20033;-72
2024/04/05 10:48:56;;;;;;;7.25;1.40;;;;;;;;;;5010565;28;20045;-70
2024/04/05 10:51:25;;;;;;;6.80;1.73;;;;;;;;;;5000555;28;20049;-70
2024/04/05 10:53:54;;;;;;;5.45;1.27;;;;;;;;;;4998419;28;20416;-71
2024/04/05 10:56:22;;;;;;;4.40;1.13;;;;;;;;;;5002147;28;20160;-70
2024/04/05 10:58:49;;;;;;;4.95;1.10;;;;;;;;;;4997706;28;22088;-70
2024/04/05 11:01:17;;;;;;;6.05;1.40;;;;;;;;;;5001486;28;20041;-69
2024/04/05 11:03:45;;;;;;;6.90;1.50;;;;;;;;;;4996817;28;20029;-69
2024/04/05 11:06:12;;;;;;;4.50;1.20;;;;;;;;;;5000340;28;20793;-71
2024/04/05 11:08:38;;;;;;;6.55;1.25;;;;;;;;;;4997394;28;20136;-70
2024/04/05 11:11:12;;;;;;;7.57;1.55;;;;;;;;;;5000676;28;20128;-72
2024/04/05 11:13:41;;;;;;;9.07;1.98;;;;;;;;;;4996915;28;20032;-71
2024/04/05 11:16:09;;;;;;;6.95;1.58;;;;;;;;;;5001661;28;20105;-72
2024/04/05 11:18:40;;;;;;;8.90;1.40;;;;;;;;;;4998032;28;20041;-70
2024/04/05 11:21:06;;;;;;;7.32;1.40;;;;;;;;;;5001413;28;20044;-71
2024/04/05 11:23:34;;;;;;;5.10;1.35;;;;;;;;;;4979476;28;20409;-71
2024/04/05 11:26:03;;;;;;;5.40;1.40;;;;;;;;;;4982846;28;20075;-70
2024/04/05 11:28:31;;;;;;;7.07;1.30;;;;;;;;;;4980052;28;20128;-68
2024/04/05 11:30:58;;;;;;;6.50;1.40;;;;;;;;;;5000248;28;20038;-72
2024/04/05 11:33:26;;;;;;;7.32;1.35;;;;;;;;;;5002130;28;20065;-73
2024/04/05 11:35:55;;;;;;;5.93;1.10;;;;;;;;;;4995878;28;20021;-72
2024/04/05 11:38:24;;;;;;;6.10;1.52;;;;;;;;;;4976843;28;20048;-72
2024/04/05 11:40:51;;;;;;;7.80;1.85;;;;;;;;;;4995758;28;20394;-72
2024/04/05 11:43:19;;;;;;;4.93;1.48;;;;;;;;;;5000080;28;20495;-71
2024/04/05 11:45:47;;;;;;;8.60;1.52;;;;;;;;;;4996227;28;20100;-72
2024/04/05 11:48:14;;;;;;;6.20;1.52;;;;;;;;;;4999903;28;20033;-70
2024/04/05 11:50:42;;;;;;;8.32;1.75;;;;;;;;;;4976820;28;20160;-71
2024/04/05 11:53:10;;;;;;;6.65;1.60;;;;;;;;;;4997997;28;20506;-71
2024/04/05 11:55:37;;;;;;;8.20;1.60;;;;;;;;;;4992149;28;20037;-70
2024/04/05 11:58:06;;;;;;;6.97;1.55;;;;;;;;;;4997310;28;20063;-72
2024/04/05 12:00:40;;;;;;;7.18;1.77;;;;;;;;;;4995158;28;20075;-72
2024/04/05 12:03:08;;;;;;;8.75;1.50;;;;;;;;;;4980433;28;20787;-71
2024/04/05 12:05:38;;;;;;;8.77;1.77;;;;;;;;;;4995295;28;20874;-73
2024/04/05 12:08:05;;;;;;;6.70;1.50;;;;;;;;;;4980409;28;20045;-72
2024/04/05 12:10:33;;;;;;;6.68;1.77;;;;;;;;;;4993165;28;20044;-71
2024/04/05 12:13:00;;;;;;;8.63;1.60;;;;;;;;;;4998671;28;20624;-72
2024/04/05 12:15:29;;;;;;;7.85;1.60;;;;;;;;;;4998723;28;20039;-72
2024/04/05 12:17:56;;;;;;;4.90;1.30;;;;;;;;;;4998219;28;20269;-71
2024/04/05 12:20:24;;;;;;;5.55;1.40;;;;;;;;;;4980573;28;20034;-71
2024/04/05 12:22:53;;;;;;;7.15;1.42;;;;;;;;;;4994193;28;20579;-72
2024/04/05 12:25:22;;;;;;;6.63;1.50;;;;;;;;;;4999207;28;20136;-73
2024/04/05 12:27:55;;;;;;;7.75;1.55;;;;;;;;;;4994874;28;20046;-71
2024/04/05 12:30:22;;;;;;;5.82;1.33;;;;;;;;;;4998211;28;20075;-71
2024/04/05 12:32:50;;;;;;;7.20;1.50;;;;;;;;;;4995168;28;20037;-72
2024/04/05 12:35:17;;;;;;;4.72;1.35;;;;;;;;;;4982105;28;20045;-71
2024/04/05 12:37:51;;;;;;;7.43;1.45;;;;;;;;;;4993703;28;20060;-71
2024/04/05 12:40:25;;;;;;;6.43;1.55;;;;;;;;;;4997551;28;20116;-71
2024/04/05 12:42:52;;;;;;;8.23;1.50;;;;;;;;;;4994644;28;20032;-72
2024/04/05 12:45:20;;;;;;;5.22;1.25;;;;;;;;;;4994693;28;22026;-72
2024/04/05 12:47:48;;;;;;;6.03;1.30;;;;;;;;;;4975999;28;20606;-72
2024/04/05 12:50:16;;;;;;;5.00;1.20;;;;;;;;;;4979384;28;20025;-72
2024/04/05 12:52:43;;;;;;;6.88;1.40;;;;;;;;;;4994883;28;20033;-71
2024/04/05 12:55:09;;;;;;;6.88;1.35;;;;;;;;;;4980088;28;20064;-71
2024/04/05 12:57:37;;;;;;;6.15;1.25;;;;;;;;;;4977341;28;20515;-71
2024/04/05 13:00:06;;;;;;;5.57;1.23;;;;;;;;;;4998201;28;20057;-71
2024/04/05 13:02:34;;;;;;;5.90;1.30;;;;;;;;;;4976177;28;20032;-72
2024/04/05 13:05:03;;;;;;;6.00;1.05;;;;;;;;;;4998120;28;20541;-71
2024/04/05 13:07:32;;;;;;;12.52;1.67;;;;;;;;;;4994486;28;20817;-71
2024/04/05 13:09:59;;;;;;;6.35;1.52;;;;;;;;;;4994611;28;20053;-70
2024/04/05 13:12:27;;;;;;;5.80;1.17;;;;;;;;;;4983829;28;20030;-71
2024/04/05 13:14:54;;;;;;;6.53;1.30;;;;;;;;;;5011875;28;20037;-71
2024/04/05 13:17:21;;;;;;;9.90;1.67;;;;;;;;;;5001001;28;20045;-72
2024/04/05 13:19:51;;;;;;;9.98;1.52;;;;;;;;;;4997802;28;20025;-72
2024/04/05 13:22:21;;;;;;;7.22;1.27;;;;;;;;;;4984571;28;20037;-71
2024/04/05 13:24:50;;;;;;;6.43;1.30;;;;;;;;;;4998594;28;20064;-72
2024/04/05 13:27:17;;;;;;;6.95;1.20;;;;;;;;;;5002883;28;20040;-71
2024/04/05 13:29:44;;;;;;;7.25;1.60;;;;;;;;;;4998121;28;20075;-72
2024/04/05 13:32:14;;;;;;;6.35;1.35;;;;;;;;;;4983435;28;20756;-71
2024/04/05 13:34:41;;;;;;;5.03;1.20;;;;;;;;;;4996986;28;20046;-71
2024/04/05 13:37:09;;;;;;;6.43;1.38;;;;;;;;;;5001877;28;20033;-71
2024/04/05 13:39:35;;;;;;;7.63;1.40;;;;;;;;;;4974098;28;20037;-71
2024/04/05 13:42:03;;;;;;;5.15;1.15;;;;;;;;;;4997019;28;20084;-71
2024/04/05 13:44:32;;;;;;;20.25;2.33;;;;;;;;;;4998304;28;20052;-73
2024/04/05 13:46:59;;;;;;;5.50;1.35;;;;;;;;;;5000507;28;20033;-71
2024/04/05 13:49:26;;;;;;;6.28;1.30;;;;;;;;;;4982151;28;20053;-72
2024/04/05 13:51:55;;;;;;;7.53;1.40;;;;;;;;;;4997195;28;20040;-73
2024/04/05 13:54:22;;;;;;;8.73;1.75;;;;;;;;;;5001085;28;20088;-71
2024/04/05 13:56:50;;;;;;;6.35;1.30;;;;;;;;;;4997873;28;21967;-72
2024/04/05 13:59:20;;;;;;;8.45;1.60;;;;;;;;;;4997094;28;21190;-71
2024/04/05 14:01:48;;;;;;;8.35;2.20;;;;;;;;;;4994679;28;20029;-72
2024/04/05 14:04:15;;;;;;;9.10;2.15;;;;;;;;;;5000324;28;20064;-72
2024/04/05 14:06:43;;;;;;;8.13;1.85;;;;;;;;;;4996442;28;20037;-71
2024/04/05 14:09:13;;;;;;;7.00;1.75;;;;;;;;;;5002039;28;20547;-72
2024/04/05 14:11:41;;;;;;;9.07;2.15;;;;;;;;;;4997293;28;20095;-72
2024/04/05 14:14:09;;;;;;;7.43;2.08;;;;;;;;;;5000905;28;20023;-72
2024/04/05 14:16:36;;;;;;;8.50;1.85;;;;;;;;;;4976869;28;20037;-72
2024/04/05 14:19:05;;;;;;;8.25;2.03;;;;;;;;;;5000527;28;20025;-72
2024/04/05 14:21:33;;;;;;;10.10;2.33;;;;;;;;;;4995105;28;20126;-72
2024/04/05 14:24:01;;;;;;;7.28;1.70;;;;;;;;;;4998881;28;20529;-72
2024/04/05 14:26:29;;;;;;;9.77;1.90;;;;;;;;;;5000148;28;20056;-72
2024/04/05 14:28:57;;;;;;;8.38;1.75;;;;;;;;;;5000161;28;20076;-72
2024/04/05 14:31:30;;;;;;;12.07;2.10;;;;;;;;;;4997069;28;20037;-72
2024/04/05 14:34:03;;;;;;;9.52;1.88;;;;;;;;;;4999132;28;20022;-73
2024/04/05 14:36:35;;;;;;;8.02;1.50;;;;;;;;;;4973803;28;20029;-73
2024/04/05 14:39:08;;;;;;;10.05;1.75;;;;;;;;;;4998095;28;20512;-73
2024/04/05 14:41:44;;;;;;;9.68;2.00;;;;;;;;;;4985572;28;20165;-73
2024/04/05 14:44:31;;;;;;;6.55;1.67;;;;;;;;;;4998201;28;20067;-71
2024/04/05 14:47:16;;;;;;;12.88;2.70;;;;;;;;;;4998678;28;20025;-72
2024/04/05 14:49:48;;;;;;;9.10;2.30;;;;;;;;;;4994690;28;20160;-73